Time;durP1;ratioP1;P1;durP2;ratioP2;P2;SDS_P1;SDS_P2;PMS_P1;PMS_P2;Temp;Humidity;BMP_temperature;BMP_pressure;BME280_temperature;BME280_humidity;BME280_pressure;Samples;Min_cycle;Max_cycle;Signal;HPM_P1;HPM_P2
2024/01/03 00:01:28;;;;;;;0.88;0.73;;;8.60;99.90;;;;;;4975311;28;20256;-78
2024/01/03 00:03:55;;;;;;;0.80;0.70;;;8.50;99.90;;;;;;4976666;28;20743;-78
2024/01/03 00:06:22;;;;;;;0.93;0.82;;;8.50;99.90;;;;;;4974698;28;20211;-78
2024/01/03 00:08:49;;;;;;;0.80;0.70;;;8.50;99.90;;;;;;4967503;28;20279;-78
2024/01/03 00:11:22;;;;;;;0.70;0.70;;;8.50;99.90;;;;;;4974570;28;20231;-78
2024/01/03 00:14:05;;;;;;;0.80;0.70;;;8.50;99.90;;;;;;4970673;28;20322;-78
2024/01/03 00:16:34;;;;;;;2.13;1.00;;;8.40;99.90;;;;;;4965621;28;20230;-78
2024/01/03 00:19:02;;;;;;;1.15;0.70;;;8.40;99.90;;;;;;4969988;28;20212;-78
2024/01/03 00:21:30;;;;;;;1.15;0.80;;;8.40;99.90;;;;;;4955266;28;20238;-78
2024/01/03 00:23:58;;;;;;;1.67;0.93;;;8.40;99.90;;;;;;4952715;29;20215;-78
2024/01/03 00:26:30;;;;;;;0.70;0.60;;;8.40;99.90;;;;;;4952297;29;20239;-78
2024/01/03 00:28:58;;;;;;;1.10;0.70;;;8.40;99.90;;;;;;4953230;29;20302;-78
2024/01/03 00:31:41;;;;;;;0.88;0.77;;;8.50;99.90;;;;;;4952518;28;20237;-78
2024/01/03 00:34:36;;;;;;;0.88;0.80;;;8.50;99.90;;;;;;4953611;29;20241;-79
2024/01/03 00:37:17;;;;;;;0.80;0.68;;;8.50;99.90;;;;;;4953531;29;20234;-79
2024/01/03 00:39:46;;;;;;;1.02;0.90;;;8.50;99.90;;;;;;4949257;29;20245;-78
2024/01/03 00:42:12;;;;;;;1.33;1.15;;;8.60;99.90;;;;;;4952153;28;20238;-78
2024/01/03 00:44:39;;;;;;;0.90;0.80;;;8.60;99.90;;;;;;4946048;29;20211;-78
2024/01/03 00:47:08;;;;;;;3.35;1.00;;;8.60;99.90;;;;;;4951782;29;20227;-79
2024/01/03 00:49:36;;;;;;;0.93;0.80;;;8.60;99.90;;;;;;4953021;28;20637;-78
2024/01/03 00:52:03;;;;;;;2.42;1.00;;;8.60;99.90;;;;;;4952441;28;20803;-78
2024/01/03 00:54:34;;;;;;;1.10;1.00;;;8.70;99.90;;;;;;4952366;28;20225;-78
2024/01/03 00:57:09;;;;;;;1.48;0.90;;;8.80;99.90;;;;;;4953006;28;20677;-78
2024/01/03 00:59:45;;;;;;;1.00;0.90;;;8.80;99.90;;;;;;4946874;28;20202;-78
2024/01/03 01:02:15;;;;;;;1.13;1.00;;;8.80;99.90;;;;;;4947915;29;20245;-78
2024/01/03 01:04:42;;;;;;;0.82;0.80;;;8.70;99.90;;;;;;4952677;28;20228;-78
2024/01/03 01:07:11;;;;;;;0.80;0.70;;;8.60;99.90;;;;;;4951796;28;20221;-79
2024/01/03 01:09:40;;;;;;;1.00;0.90;;;8.50;99.90;;;;;;4946872;29;20213;-78
2024/01/03 01:12:10;;;;;;;1.67;1.00;;;8.50;99.90;;;;;;4950939;28;20265;-78
2024/01/03 01:14:37;;;;;;;2.08;1.05;;;8.40;99.90;;;;;;4951748;29;20235;-78
2024/01/03 01:17:04;;;;;;;1.20;1.10;;;8.30;99.90;;;;;;4950568;28;20221;-78
2024/01/03 01:19:32;;;;;;;0.98;0.73;;;8.20;99.90;;;;;;4950789;28;20225;-78
2024/01/03 01:22:03;;;;;;;0.95;0.85;;;8.10;99.90;;;;;;4951835;28;20238;-79
2024/01/03 01:24:30;;;;;;;0.80;0.70;;;8.00;99.90;;;;;;4952084;28;20593;-78
2024/01/03 01:26:59;;;;;;;0.80;0.73;;;8.00;99.90;;;;;;4952219;29;20221;-78
2024/01/03 01:29:26;;;;;;;2.17;0.93;;;7.80;99.90;;;;;;4953397;28;20689;-79
2024/01/03 01:31:53;;;;;;;3.08;0.90;;;7.90;99.90;;;;;;4954766;28;20236;-79
2024/01/03 01:34:20;;;;;;;3.20;0.80;;;7.80;99.90;;;;;;4955938;28;20601;-79
2024/01/03 01:36:48;;;;;;;0.80;0.70;;;7.80;99.90;;;;;;4956863;29;20208;-79
2024/01/03 01:39:15;;;;;;;1.60;1.00;;;7.80;99.90;;;;;;4948356;28;20303;-78
2024/01/03 01:41:41;;;;;;;1.20;1.00;;;7.90;99.90;;;;;;4956293;28;20231;-79
2024/01/03 01:44:08;;;;;;;1.42;1.08;;;7.90;99.90;;;;;;4955192;28;20216;-78
2024/01/03 01:46:36;;;;;;;1.60;1.10;;;8.00;99.90;;;;;;4954862;28;20205;-79
2024/01/03 01:49:04;;;;;;;1.13;0.93;;;8.00;99.90;;;;;;4955997;29;20710;-78
2024/01/03 01:51:32;;;;;;;0.90;0.80;;;8.10;99.90;;;;;;4955682;29;20229;-78
2024/01/03 01:54:00;;;;;;;0.80;0.70;;;8.10;99.90;;;;;;4955862;28;20216;-79
2024/01/03 01:56:27;;;;;;;0.90;0.80;;;8.10;99.90;;;;;;4956218;28;20209;-78
2024/01/03 01:58:54;;;;;;;1.10;1.00;;;8.10;99.90;;;;;;4956835;29;20205;-79
2024/01/03 02:01:22;;;;;;;0.80;0.80;;;8.10;99.90;;;;;;4955492;28;20233;-79
2024/01/03 02:03:51;;;;;;;3.67;1.20;;;8.10;99.90;;;;;;4956948;28;20208;-78
2024/01/03 02:06:20;;;;;;;1.20;0.95;;;8.10;99.90;;;;;;4952993;28;20206;-78
2024/01/03 02:08:47;;;;;;;0.88;0.70;;;8.20;99.90;;;;;;4954204;29;20218;-78
2024/01/03 02:11:15;;;;;;;1.08;0.70;;;8.20;99.90;;;;;;4953263;29;20226;-78
2024/01/03 02:13:44;;;;;;;0.80;0.70;;;8.10;99.90;;;;;;4946625;29;20233;-78
2024/01/03 02:16:11;;;;;;;0.82;0.80;;;8.10;99.90;;;;;;4953832;29;20608;-78
2024/01/03 02:18:38;;;;;;;0.70;0.60;;;8.00;99.90;;;;;;4953768;28;20209;-78
2024/01/03 02:21:10;;;;;;;0.90;0.70;;;8.00;99.90;;;;;;4954049;29;20236;-78
2024/01/03 02:23:37;;;;;;;0.70;0.60;;;7.90;99.90;;;;;;4954918;28;20216;-78
2024/01/03 02:26:04;;;;;;;0.90;0.80;;;7.80;99.90;;;;;;4958082;28;20595;-78
2024/01/03 02:28:30;;;;;;;0.70;0.60;;;7.80;99.90;;;;;;4958395;28;20217;-78
2024/01/03 02:30:57;;;;;;;1.00;0.90;;;7.90;99.90;;;;;;4958495;28;20247;-78
2024/01/03 02:33:24;;;;;;;0.70;0.60;;;7.80;99.90;;;;;;4958951;28;20209;-79
2024/01/03 02:35:51;;;;;;;0.70;0.60;;;7.80;99.90;;;;;;4958918;29;20225;-78
2024/01/03 02:38:19;;;;;;;0.80;0.70;;;7.80;99.90;;;;;;4959437;28;20215;-78
2024/01/03 02:40:45;;;;;;;0.80;0.70;;;7.90;99.90;;;;;;4955457;28;20229;-79
2024/01/03 02:43:12;;;;;;;0.70;0.60;;;7.80;99.90;;;;;;4959930;28;20212;-79
2024/01/03 02:45:39;;;;;;;0.70;0.60;;;7.80;99.90;;;;;;4960422;28;21133;-79
2024/01/03 02:48:06;;;;;;;1.23;0.90;;;7.80;99.90;;;;;;4959686;28;20209;-79
2024/01/03 02:50:33;;;;;;;0.80;0.70;;;7.80;99.90;;;;;;4961786;28;20205;-78
2024/01/03 02:53:01;;;;;;;1.13;0.70;;;7.80;99.90;;;;;;4968094;28;20244;-78
2024/01/03 02:55:30;;;;;;;0.70;0.60;;;7.90;99.90;;;;;;4969694;28;20233;-78
2024/01/03 02:57:56;;;;;;;1.58;1.00;;;7.80;99.90;;;;;;4969335;29;20216;-78
2024/01/03 03:00:23;;;;;;;0.80;0.70;;;7.80;99.90;;;;;;4968333;28;20218;-79
2024/01/03 03:02:49;;;;;;;1.13;0.77;;;7.80;99.90;;;;;;4968728;29;20220;-78
2024/01/03 03:05:15;;;;;;;0.97;0.70;;;7.90;99.90;;;;;;4969277;28;20619;-79
2024/01/03 03:07:42;;;;;;;0.80;0.70;;;7.80;99.90;;;;;;4955112;28;20214;-79
2024/01/03 03:10:12;;;;;;;0.70;0.70;;;7.80;99.90;;;;;;4958648;28;20220;-79
2024/01/03 03:12:40;;;;;;;0.80;0.70;;;7.80;99.90;;;;;;4959000;29;20305;-79
2024/01/03 03:15:07;;;;;;;1.23;0.70;;;7.80;99.90;;;;;;4958925;29;20714;-79
2024/01/03 03:17:34;;;;;;;1.65;0.80;;;7.80;99.90;;;;;;4958192;28;20674;-79
2024/01/03 03:20:01;;;;;;;0.80;0.70;;;7.70;99.90;;;;;;4958757;28;20205;-79
2024/01/03 03:22:27;;;;;;;1.00;0.73;;;7.70;99.90;;;;;;4958088;28;20252;-79
2024/01/03 03:24:54;;;;;;;0.80;0.70;;;7.80;99.90;;;;;;4958991;28;20208;-79
2024/01/03 03:27:21;;;;;;;0.80;0.80;;;7.80;99.90;;;;;;4958593;29;20236;-78
2024/01/03 03:29:49;;;;;;;0.80;0.80;;;7.80;99.90;;;;;;4958340;29;20586;-78
2024/01/03 03:32:16;;;;;;;0.77;0.70;;;7.80;99.90;;;;;;4958312;28;20240;-79
2024/01/03 03:34:43;;;;;;;0.70;0.60;;;7.80;99.90;;;;;;4957656;28;20218;-79
2024/01/03 03:37:10;;;;;;;0.90;0.80;;;7.80;99.90;;;;;;4958653;28;20221;-79
2024/01/03 03:39:36;;;;;;;0.80;0.70;;;7.90;99.90;;;;;;4958293;28;20209;-79
2024/01/03 03:42:03;;;;;;;0.70;0.70;;;7.80;99.90;;;;;;4956698;29;20236;-78
2024/01/03 03:44:30;;;;;;;0.80;0.75;;;7.70;99.90;;;;;;4955721;28;20210;-78
2024/01/03 03:46:58;;;;;;;1.00;0.80;;;7.70;99.90;;;;;;4955898;29;20205;-78
2024/01/03 03:49:25;;;;;;;0.80;0.70;;;7.70;99.90;;;;;;4956104;28;20705;-78
2024/01/03 03:51:52;;;;;;;0.93;0.77;;;7.70;99.90;;;;;;4952970;28;20315;-78
2024/01/03 03:54:18;;;;;;;0.80;0.80;;;7.60;99.90;;;;;;4956817;29;20218;-78
2024/01/03 03:56:45;;;;;;;0.90;0.80;;;7.60;99.90;;;;;;4956133;28;20598;-78
2024/01/03 03:59:12;;;;;;;1.35;0.90;;;7.50;99.90;;;;;;4956919;29;20697;-78
2024/01/03 04:01:39;;;;;;;0.80;0.70;;;7.50;99.90;;;;;;4955120;28;20225;-78
2024/01/03 04:04:07;;;;;;;1.85;1.25;;;7.50;99.90;;;;;;4957152;28;20201;-78
2024/01/03 04:06:33;;;;;;;0.90;0.80;;;7.40;99.90;;;;;;4957179;29;20212;-78
2024/01/03 04:09:00;;;;;;;1.65;1.02;;;7.40;99.90;;;;;;4957606;28;20216;-78
2024/01/03 04:11:27;;;;;;;0.90;0.80;;;7.40;99.90;;;;;;4957111;29;20236;-79
2024/01/03 04:13:54;;;;;;;1.75;1.13;;;7.40;99.90;;;;;;4954962;28;20201;-79
2024/01/03 04:16:20;;;;;;;2.60;0.98;;;7.40;99.90;;;;;;4957811;29;20238;-79
2024/01/03 04:18:47;;;;;;;2.85;1.02;;;7.40;99.90;;;;;;4957394;29;20215;-79
2024/01/03 04:21:15;;;;;;;1.98;0.80;;;7.40;99.90;;;;;;4957042;28;20726;-82
2024/01/03 04:23:42;;;;;;;1.75;1.50;;;7.40;99.90;;;;;;4957493;29;20219;-81
2024/01/03 04:26:09;;;;;;;0.80;0.70;;;7.40;99.90;;;;;;4957252;29;20564;-81
2024/01/03 04:28:35;;;;;;;1.52;1.30;;;7.40;99.90;;;;;;4957056;29;20260;-81
2024/01/03 04:31:02;;;;;;;1.60;1.08;;;7.40;99.90;;;;;;4956881;29;20243;-80
2024/01/03 04:33:29;;;;;;;1.38;0.88;;;7.40;99.90;;;;;;4957885;29;20209;-80
2024/01/03 04:35:56;;;;;;;0.80;0.70;;;7.40;99.90;;;;;;4955754;29;20599;-80
2024/01/03 04:38:24;;;;;;;1.08;0.98;;;7.40;99.90;;;;;;4957784;29;20260;-82
2024/01/03 04:40:51;;;;;;;6.05;1.00;;;7.40;99.90;;;;;;4955715;29;20238;-81
2024/01/03 04:43:18;;;;;;;1.13;0.90;;;7.40;99.90;;;;;;4956700;29;20283;-82
2024/01/03 04:45:44;;;;;;;1.70;0.88;;;7.30;99.90;;;;;;4957617;29;20213;-82
2024/01/03 04:48:11;;;;;;;0.95;0.90;;;7.30;99.90;;;;;;4956724;28;20240;-82
2024/01/03 04:50:38;;;;;;;0.80;0.77;;;7.40;99.90;;;;;;4957482;28;20218;-82
2024/01/03 04:53:05;;;;;;;1.30;1.10;;;7.40;99.90;;;;;;4957561;29;20219;-82
2024/01/03 04:55:33;;;;;;;3.17;0.90;;;7.30;99.90;;;;;;4957006;29;20235;-79
2024/01/03 04:58:00;;;;;;;1.50;1.02;;;7.30;99.90;;;;;;4955559;29;20574;-80
2024/01/03 05:00:27;;;;;;;0.90;0.80;;;7.30;99.90;;;;;;4956615;29;20201;-81
2024/01/03 05:02:57;;;;;;;1.67;0.95;;;7.30;99.90;;;;;;4956147;29;20209;-82
2024/01/03 05:05:24;;;;;;;0.90;0.85;;;7.30;99.90;;;;;;4957571;29;20209;-81
2024/01/03 05:07:51;;;;;;;3.00;1.88;;;7.30;99.90;;;;;;4957631;29;20272;-79
2024/01/03 05:10:17;;;;;;;1.65;0.88;;;7.20;99.90;;;;;;4956655;29;20204;-80
2024/01/03 05:12:45;;;;;;;2.78;0.93;;;7.10;99.90;;;;;;4955162;29;20229;-79
2024/01/03 05:15:12;;;;;;;0.77;0.77;;;7.10;99.90;;;;;;4956094;29;20213;-79
2024/01/03 05:17:41;;;;;;;1.08;0.98;;;7.10;99.90;;;;;;4953665;29;20213;-79
2024/01/03 05:20:09;;;;;;;4.70;1.50;;;7.10;99.90;;;;;;4954446;29;20526;-81
2024/01/03 05:22:36;;;;;;;1.05;0.70;;;7.20;99.90;;;;;;4967670;28;20259;-80
2024/01/03 05:25:03;;;;;;;1.30;1.02;;;7.30;99.90;;;;;;4979940;28;20212;-80
2024/01/03 05:27:30;;;;;;;2.00;1.00;;;7.40;99.90;;;;;;4975789;28;20567;-80
2024/01/03 05:29:58;;;;;;;1.52;1.30;;;7.40;99.90;;;;;;4977548;28;20338;-80
2024/01/03 05:32:25;;;;;;;2.53;1.10;;;7.50;99.90;;;;;;4974938;28;20392;-80
2024/01/03 05:34:52;;;;;;;1.20;0.90;;;7.50;99.90;;;;;;4974028;28;20220;-80
2024/01/03 05:37:19;;;;;;;2.35;1.00;;;7.60;99.90;;;;;;4974542;28;20607;-80
2024/01/03 05:39:46;;;;;;;1.63;1.10;;;7.70;99.90;;;;;;4977220;28;20643;-80
2024/01/03 05:42:13;;;;;;;3.17;0.90;;;7.80;99.90;;;;;;4976917;28;20231;-81
2024/01/03 05:44:39;;;;;;;2.03;0.90;;;7.80;99.90;;;;;;4977265;28;20215;-81
2024/01/03 05:47:07;;;;;;;1.83;1.17;;;7.90;99.90;;;;;;4979978;28;20214;-80
2024/01/03 05:49:35;;;;;;;1.67;1.30;;;7.90;99.90;;;;;;4978321;28;20219;-80
2024/01/03 05:52:01;;;;;;;2.35;0.80;;;7.90;99.90;;;;;;4978513;28;20224;-80
2024/01/03 05:54:28;;;;;;;1.00;0.82;;;8.00;99.90;;;;;;4981148;28;20263;-81
2024/01/03 05:56:55;;;;;;;1.38;1.00;;;8.00;99.90;;;;;;4977597;28;20225;-80
2024/01/03 05:59:22;;;;;;;1.45;0.93;;;8.00;99.90;;;;;;4979988;28;20209;-81
2024/01/03 06:01:49;;;;;;;2.03;1.25;;;8.00;99.90;;;;;;4980778;28;20797;-81
2024/01/03 06:04:17;;;;;;;2.45;0.90;;;8.00;99.90;;;;;;4975311;28;20353;-81
2024/01/03 06:06:44;;;;;;;2.50;1.02;;;8.00;99.90;;;;;;4978772;28;20219;-80
2024/01/03 06:09:11;;;;;;;5.03;1.42;;;8.10;99.90;;;;;;4981213;28;20214;-81
2024/01/03 06:11:38;;;;;;;1.05;0.80;;;8.20;99.90;;;;;;4981540;28;20230;-80
2024/01/03 06:14:05;;;;;;;1.92;1.17;;;8.20;99.90;;;;;;4979572;28;20244;-80
2024/01/03 06:16:32;;;;;;;2.88;1.23;;;8.20;99.90;;;;;;4979538;28;20224;-80
2024/01/03 06:18:58;;;;;;;2.78;0.80;;;8.20;99.90;;;;;;4978070;28;20224;-80
2024/01/03 06:21:26;;;;;;;1.33;0.90;;;8.10;99.90;;;;;;4980918;28;20617;-80
2024/01/03 06:23:53;;;;;;;0.80;0.70;;;8.10;99.90;;;;;;4979131;28;20259;-80
2024/01/03 06:26:21;;;;;;;0.82;0.75;;;8.00;99.90;;;;;;4978012;28;20251;-77
2024/01/03 06:28:48;;;;;;;1.05;0.95;;;8.00;99.90;;;;;;4969085;28;20221;-79
2024/01/03 06:31:14;;;;;;;1.33;1.08;;;7.90;99.90;;;;;;4973467;28;20632;-79
2024/01/03 06:33:41;;;;;;;2.55;1.92;;;7.80;99.90;;;;;;4978525;28;20208;-77
2024/01/03 06:36:08;;;;;;;0.80;0.75;;;7.70;99.90;;;;;;4973061;28;20225;-79
2024/01/03 06:38:36;;;;;;;3.13;1.05;;;7.70;99.90;;;;;;4973766;28;20210;-80
2024/01/03 06:41:03;;;;;;;1.70;0.95;;;7.60;99.90;;;;;;4976239;28;20233;-78
2024/01/03 06:43:30;;;;;;;1.20;0.80;;;7.50;99.90;;;;;;4981645;28;20214;-78
2024/01/03 06:45:56;;;;;;;1.75;1.17;;;7.50;99.90;;;;;;4979573;28;20209;-77
2024/01/03 06:48:23;;;;;;;2.75;0.80;;;7.50;99.90;;;;;;4970558;28;20206;-78
2024/01/03 06:50:51;;;;;;;1.10;0.85;;;7.60;99.90;;;;;;4970274;28;20224;-78
2024/01/03 06:53:18;;;;;;;1.10;0.90;;;7.60;99.90;;;;;;4966372;28;20696;-76
2024/01/03 06:55:46;;;;;;;1.10;0.90;;;7.60;99.90;;;;;;4974546;28;20208;-78
2024/01/03 06:58:13;;;;;;;4.00;1.17;;;7.60;99.90;;;;;;4974833;28;20205;-78
2024/01/03 07:00:40;;;;;;;1.55;1.13;;;7.60;99.90;;;;;;4973591;28;20645;-75
2024/01/03 07:03:06;;;;;;;3.55;1.10;;;7.60;99.90;;;;;;4973586;28;20208;-77
2024/01/03 07:05:33;;;;;;;3.30;1.08;;;7.70;99.90;;;;;;4974093;28;20213;-77
2024/01/03 07:08:01;;;;;;;1.30;1.02;;;7.70;99.90;;;;;;4970399;28;20211;-77
2024/01/03 07:10:31;;;;;;;1.55;0.80;;;7.90;99.90;;;;;;4974833;28;20203;-80
2024/01/03 07:12:59;;;;;;;0.95;0.85;;;7.90;99.90;;;;;;4981760;28;20217;-79
2024/01/03 07:15:26;;;;;;;1.48;0.80;;;8.00;99.90;;;;;;4978604;28;20209;-83
2024/01/03 07:17:55;;;;;;;1.05;0.93;;;8.00;99.90;;;;;;4975624;28;20223;-79
2024/01/03 07:20:22;;;;;;;0.70;0.70;;;8.10;99.90;;;;;;4975111;28;20275;-79
2024/01/03 07:22:49;;;;;;;1.38;0.88;;;8.20;99.90;;;;;;4976432;28;20232;-77
2024/01/03 07:25:15;;;;;;;2.20;0.90;;;8.20;99.90;;;;;;4967500;28;20284;-78
2024/01/03 07:27:42;;;;;;;1.13;1.00;;;8.20;99.90;;;;;;4975861;28;20236;-77
2024/01/03 07:30:12;;;;;;;0.80;0.80;;;8.20;99.90;;;;;;4975745;28;20201;-78
2024/01/03 07:32:38;;;;;;;4.85;0.95;;;8.20;99.90;;;;;;4974443;28;20220;-77
2024/01/03 07:35:06;;;;;;;2.55;0.90;;;8.20;99.90;;;;;;4976284;28;20219;-79
2024/01/03 07:37:33;;;;;;;2.65;1.25;;;8.20;99.90;;;;;;4985634;28;20224;-79
2024/01/03 07:40:00;;;;;;;1.05;0.77;;;8.30;99.90;;;;;;4985538;28;20206;-77
2024/01/03 07:42:27;;;;;;;1.50;1.20;;;8.30;99.90;;;;;;4986452;28;20224;-79
2024/01/03 07:44:53;;;;;;;1.83;0.90;;;8.30;99.90;;;;;;4987684;28;20208;-79
2024/01/03 07:47:21;;;;;;;4.32;1.10;;;8.40;99.90;;;;;;4985034;28;20208;-79
2024/01/03 07:49:49;;;;;;;0.80;0.70;;;8.30;99.90;;;;;;4985483;28;20200;-77
2024/01/03 07:52:15;;;;;;;2.25;0.80;;;8.30;99.90;;;;;;4969101;28;20231;-79
2024/01/03 07:54:42;;;;;;;1.23;0.88;;;8.20;99.90;;;;;;4972753;28;20206;-79
2024/01/03 07:57:09;;;;;;;1.27;0.80;;;8.20;99.90;;;;;;4968893;28;20237;-79
2024/01/03 07:59:36;;;;;;;1.90;0.80;;;8.30;99.90;;;;;;4977752;28;20205;-81
2024/01/03 08:02:03;;;;;;;3.08;0.80;;;8.30;99.90;;;;;;4977552;28;20569;-81
2024/01/03 08:04:31;;;;;;;1.20;1.10;;;8.50;99.90;;;;;;4975418;28;20209;-79
2024/01/03 08:06:58;;;;;;;1.58;1.30;;;8.50;99.90;;;;;;4973564;28;20202;-78
2024/01/03 08:09:25;;;;;;;0.80;0.70;;;8.60;99.90;;;;;;4973420;28;20209;-77
2024/01/03 08:11:52;;;;;;;3.28;1.20;;;8.70;99.90;;;;;;4974492;28;20229;-77
2024/01/03 08:14:19;;;;;;;2.67;1.20;;;8.80;99.90;;;;;;4974478;28;20271;-77
2024/01/03 08:16:46;;;;;;;1.50;1.08;;;8.80;99.90;;;;;;4966153;28;20221;-77
2024/01/03 08:19:13;;;;;;;2.28;0.85;;;9.10;99.90;;;;;;4973171;28;20240;-79
2024/01/03 08:21:41;;;;;;;0.90;0.80;;;9.70;99.90;;;;;;4972645;28;20670;-77
2024/01/03 08:24:09;;;;;;;3.17;1.20;;;10.20;99.90;;;;;;4975338;28;20211;-78
2024/01/03 08:26:35;;;;;;;1.30;0.80;;;10.30;99.90;;;;;;4974491;28;20665;-77
2024/01/03 08:29:02;;;;;;;2.80;0.95;;;10.10;99.90;;;;;;4974873;28;20653;-77
2024/01/03 08:31:29;;;;;;;2.35;1.20;;;9.90;99.90;;;;;;4971737;28;20227;-77
2024/01/03 08:33:57;;;;;;;0.80;0.80;;;9.70;99.90;;;;;;4955681;28;20727;-77
2024/01/03 08:36:38;;;;;;;2.10;1.08;;;9.70;99.90;;;;;;4970012;28;20652;-77
2024/01/03 08:39:07;;;;;;;0.82;0.80;;;9.60;99.90;;;;;;4967729;28;20648;-77
2024/01/03 08:41:34;;;;;;;0.88;0.80;;;9.60;99.90;;;;;;4977536;28;20281;-77
2024/01/03 08:44:02;;;;;;;1.20;0.70;;;9.50;99.90;;;;;;4976201;28;20203;-77
2024/01/03 08:46:30;;;;;;;1.10;0.80;;;9.40;99.90;;;;;;4979922;28;20478;-78
2024/01/03 08:48:57;;;;;;;1.75;0.90;;;9.30;99.90;;;;;;4978170;28;20213;-77
2024/01/03 08:51:24;;;;;;;1.23;0.85;;;9.30;99.90;;;;;;4974710;28;20230;-85
2024/01/03 08:53:51;;;;;;;1.13;0.80;;;9.30;99.90;;;;;;4973759;28;20210;-77
2024/01/03 08:56:19;;;;;;;1.10;1.00;;;9.20;99.90;;;;;;4970496;28;20678;-78
2024/01/03 08:58:48;;;;;;;2.53;1.00;;;9.20;99.90;;;;;;4966735;28;20637;-77
2024/01/03 09:01:18;;;;;;;0.80;0.80;;;9.20;99.90;;;;;;4971899;28;20740;-78
2024/01/03 09:03:46;;;;;;;1.27;0.90;;;9.10;99.90;;;;;;4976185;28;20222;-77
2024/01/03 09:06:14;;;;;;;0.93;0.80;;;9.10;99.90;;;;;;4981866;28;20220;-77
2024/01/03 09:08:41;;;;;;;1.55;0.80;;;9.00;99.90;;;;;;4977815;28;20295;-79
2024/01/03 09:11:11;;;;;;;0.77;0.68;;;9.00;99.90;;;;;;4972170;28;20242;-77
2024/01/03 09:13:39;;;;;;;2.55;0.90;;;9.10;99.90;;;;;;4982833;28;20201;-77
2024/01/03 09:16:09;;;;;;;1.45;1.00;;;9.20;99.90;;;;;;4984633;28;20209;-78
2024/01/03 09:18:36;;;;;;;1.00;0.80;;;9.40;99.90;;;;;;4980476;28;20207;-77
2024/01/03 09:21:03;;;;;;;1.00;0.90;;;9.60;99.90;;;;;;4980536;28;20229;-77
2024/01/03 09:23:29;;;;;;;0.70;0.60;;;9.80;99.90;;;;;;4984426;28;20233;-77
2024/01/03 09:25:56;;;;;;;1.08;0.70;;;9.90;99.90;;;;;;4985389;28;20206;-77
2024/01/03 09:28:23;;;;;;;0.77;0.68;;;10.00;99.90;;;;;;4973638;28;20220;-77
2024/01/03 09:30:51;;;;;;;1.85;1.00;;;10.00;99.90;;;;;;4982975;28;20233;-77
2024/01/03 09:33:18;;;;;;;0.80;0.70;;;10.10;99.90;;;;;;4966469;28;20559;-77
2024/01/03 09:35:45;;;;;;;3.17;1.33;;;10.50;99.90;;;;;;4975184;28;20640;-77
2024/01/03 09:38:12;;;;;;;1.02;0.80;;;10.50;99.90;;;;;;4971111;28;20227;-78
2024/01/03 09:40:40;;;;;;;1.80;1.15;;;10.30;99.90;;;;;;4973055;28;20217;-78
2024/01/03 09:43:09;;;;;;;1.17;0.82;;;10.10;99.90;;;;;;4979632;28;20217;-77
2024/01/03 09:45:35;;;;;;;0.80;0.80;;;9.90;99.90;;;;;;4979720;28;20289;-77
2024/01/03 09:48:04;;;;;;;1.83;1.05;;;9.80;99.90;;;;;;4976052;28;20213;-76
2024/01/03 09:50:31;;;;;;;0.80;0.70;;;9.70;99.90;;;;;;4975511;28;20215;-77
2024/01/03 09:52:58;;;;;;;1.33;1.15;;;9.70;99.90;;;;;;4968188;28;20285;-79
2024/01/03 09:55:27;;;;;;;3.42;1.00;;;9.70;99.90;;;;;;4974923;28;20241;-79
2024/01/03 09:57:55;;;;;;;1.25;0.70;;;9.60;99.90;;;;;;4973878;28;20715;-78
2024/01/03 10:00:23;;;;;;;0.80;0.70;;;9.50;99.90;;;;;;4970259;28;20638;-78
2024/01/03 10:02:51;;;;;;;1.40;1.10;;;9.50;99.90;;;;;;4967306;28;20213;-79
2024/01/03 10:05:22;;;;;;;1.00;0.90;;;9.50;99.90;;;;;;4960119;28;20210;-79
2024/01/03 10:07:49;;;;;;;1.75;1.02;;;9.50;99.90;;;;;;4973975;28;20205;-81
2024/01/03 10:10:33;;;;;;;0.80;0.70;;;9.40;99.90;;;;;;4973292;28;20273;-81
2024/01/03 10:13:15;;;;;;;1.00;0.90;;;9.40;99.90;;;;;;4966138;28;20208;-78
2024/01/03 10:15:43;;;;;;;0.90;0.70;;;9.40;99.90;;;;;;4980591;28;20635;-79
2024/01/03 10:18:21;;;;;;;1.00;0.90;;;9.40;99.90;;;;;;4973588;28;20230;-79
2024/01/03 10:20:49;;;;;;;1.25;1.10;;;9.20;99.90;;;;;;4983378;28;20258;-80
2024/01/03 10:23:19;;;;;;;0.90;0.80;;;9.30;99.90;;;;;;4975565;28;20211;-80
2024/01/03 10:26:10;;;;;;;0.75;0.70;;;9.30;99.90;;;;;;4969871;28;20208;-79
2024/01/03 10:29:29;;;;;;;;;;;;;;;;;;;;;
2024/01/03 10:41:48;;;;;;;1.92;0.85;;;9.30;99.90;;;;;;5226091;23;20234;-79
2024/01/03 10:44:16;;;;;;;3.58;1.60;;;9.40;99.90;;;;;;5001756;28;20213;-79
2024/01/03 10:46:44;;;;;;;1.13;0.88;;;9.40;99.90;;;;;;5004064;28;20205;-79
2024/01/03 10:49:11;;;;;;;1.75;1.05;;;9.60;99.90;;;;;;5001110;28;21530;-79
2024/01/03 10:51:40;;;;;;;0.85;0.80;;;10.20;99.90;;;;;;4995222;28;20293;-79
2024/01/03 10:54:10;;;;;;;1.52;1.27;;;11.00;99.90;;;;;;4986434;28;20204;-79
2024/01/03 10:56:37;;;;;;;1.40;0.70;;;11.10;99.90;;;;;;4987597;28;20295;-79
2024/01/03 10:59:06;;;;;;;1.55;0.90;;;10.90;99.90;;;;;;4986788;28;20238;-78
2024/01/03 11:01:38;;;;;;;1.10;0.70;;;10.90;99.90;;;;;;4982146;28;20230;-79
2024/01/03 11:04:11;;;;;;;4.20;1.20;;;11.50;99.90;;;;;;4986984;28;20821;-79
2024/01/03 11:06:53;;;;;;;0.82;0.70;;;11.60;99.90;;;;;;4982111;28;20208;-79
2024/01/03 11:09:21;;;;;;;1.10;0.90;;;11.20;99.90;;;;;;4985947;28;20204;-78
2024/01/03 11:11:48;;;;;;;1.42;0.90;;;10.90;99.90;;;;;;4987106;28;20849;-79
2024/01/03 11:14:26;;;;;;;1.10;0.80;;;10.70;99.90;;;;;;4986830;28;20215;-78
2024/01/03 11:16:53;;;;;;;1.83;0.85;;;10.40;99.90;;;;;;4984778;28;20215;-78
2024/01/03 11:19:30;;;;;;;2.40;0.90;;;10.40;99.90;;;;;;4978555;28;20615;-79
2024/01/03 11:22:09;;;;;;;0.82;0.70;;;10.50;99.90;;;;;;4979756;28;20247;-81
2024/01/03 11:25:14;;;;;;;2.00;0.80;;;10.60;99.90;;;;;;4977271;28;20208;-81
2024/01/03 11:27:53;;;;;;;2.20;0.80;;;10.80;99.90;;;;;;4957527;28;20206;-79
2024/01/03 11:30:49;;;;;;;1.30;0.93;;;12.00;99.90;;;;;;4976888;28;20218;-81
2024/01/03 11:36:57;;;;;;;2.67;0.90;;;11.90;99.90;;;;;;4963946;28;20256;-78
2024/01/03 11:39:50;;;;;;;1.02;0.88;;;12.20;99.90;;;;;;4975216;28;20230;-81
2024/01/03 11:42:34;;;;;;;1.17;0.80;;;12.60;99.90;;;;;;5039673;23;20227;-78
2024/01/03 11:45:17;;;;;;;1.00;0.70;;;12.50;99.90;;;;;;4988979;28;20294;-80
2024/01/03 11:48:17;;;;;;;0.80;0.70;;;12.20;99.90;;;;;;4982584;28;20653;-78
2024/01/03 11:51:10;;;;;;;;;;;;;;;;;;;;;
2024/01/03 11:53:50;;;;;;;1.00;0.85;;;11.30;99.90;;;;;;4990507;28;20211;-79
2024/01/03 11:56:51;;;;;;;1.00;0.80;;;11.80;99.90;;;;;;4993509;28;20211;-80
2024/01/03 11:59:20;;;;;;;1.25;1.15;;;11.90;99.90;;;;;;4993425;28;20215;-78
2024/01/03 12:01:56;;;;;;;1.20;1.10;;;11.70;99.90;;;;;;5000571;28;20742;-80
2024/01/03 12:04:25;;;;;;;1.30;0.93;;;11.40;99.90;;;;;;4993258;28;20214;-79
2024/01/03 12:06:56;;;;;;;0.80;0.70;;;11.20;99.90;;;;;;4999820;28;20214;-79
2024/01/03 12:09:24;;;;;;;0.90;0.70;;;10.90;99.90;;;;;;4998339;28;20715;-80
2024/01/03 12:11:51;;;;;;;1.70;0.90;;;10.90;99.90;;;;;;4996800;28;20226;-80
2024/01/03 12:14:18;;;;;;;2.67;1.05;;;10.90;99.90;;;;;;4993676;28;20680;-79
2024/01/03 12:16:48;;;;;;;0.80;0.70;;;10.80;99.90;;;;;;4992317;28;20291;-80
2024/01/03 12:19:24;;;;;;;1.35;1.00;;;10.70;99.90;;;;;;4997045;28;20678;-80
2024/01/03 12:21:55;;;;;;;0.80;0.70;;;10.60;99.90;;;;;;4997445;28;20622;-80
2024/01/03 12:24:21;;;;;;;0.80;0.77;;;10.50;99.90;;;;;;4996937;28;20242;-79
2024/01/03 12:26:49;;;;;;;1.70;1.35;;;10.30;99.90;;;;;;4996872;28;20215;-79
2024/01/03 12:29:16;;;;;;;1.13;0.80;;;10.20;99.90;;;;;;4992357;28;20222;-79
2024/01/03 12:31:43;;;;;;;3.08;0.80;;;10.20;99.90;;;;;;4998730;28;20230;-80
2024/01/03 12:34:10;;;;;;;0.80;0.80;;;10.10;99.90;;;;;;5000928;28;20593;-79
2024/01/03 12:36:38;;;;;;;1.05;0.90;;;10.10;99.90;;;;;;4998639;28;20203;-78
2024/01/03 12:39:04;;;;;;;1.85;0.90;;;10.00;99.90;;;;;;4998921;28;20226;-77
2024/01/03 12:41:31;;;;;;;1.10;1.00;;;10.00;99.90;;;;;;4992657;28;20242;-78
2024/01/03 12:43:58;;;;;;;1.17;0.93;;;10.00;99.90;;;;;;4999560;28;20731;-78
2024/01/03 12:46:25;;;;;;;1.33;0.80;;;10.20;99.90;;;;;;4995998;28;20217;-78
2024/01/03 12:48:51;;;;;;;1.00;0.80;;;10.50;99.90;;;;;;4999599;28;20204;-79
2024/01/03 12:51:18;;;;;;;0.80;0.70;;;10.80;99.90;;;;;;5004240;28;20225;-79
2024/01/03 12:53:46;;;;;;;2.17;0.80;;;11.20;99.90;;;;;;4992482;28;20215;-79
2024/01/03 12:56:14;;;;;;;0.80;0.70;;;11.40;99.90;;;;;;4994233;28;20671;-78
2024/01/03 12:58:40;;;;;;;0.90;0.80;;;11.50;99.90;;;;;;4991395;28;20218;-78
2024/01/03 13:01:07;;;;;;;0.80;0.60;;;11.70;99.90;;;;;;4993152;28;20237;-78
2024/01/03 13:03:34;;;;;;;0.80;0.70;;;11.80;99.90;;;;;;4993076;28;20297;-79
2024/01/03 13:06:00;;;;;;;0.88;0.70;;;11.70;99.90;;;;;;4996879;28;20210;-78
2024/01/03 13:08:27;;;;;;;1.27;0.90;;;11.60;99.90;;;;;;4988251;28;20294;-78
2024/01/03 13:10:55;;;;;;;1.50;1.00;;;11.50;99.90;;;;;;4992622;28;20219;-79
2024/01/03 13:13:22;;;;;;;1.00;0.70;;;11.30;99.90;;;;;;4988764;28;20211;-79
2024/01/03 13:15:51;;;;;;;1.00;0.80;;;11.10;99.90;;;;;;4990144;28;20290;-78
2024/01/03 13:18:18;;;;;;;2.10;0.90;;;10.80;99.90;;;;;;4996508;28;20234;-80
2024/01/03 13:20:45;;;;;;;3.03;0.80;;;10.90;99.90;;;;;;5001511;28;20203;-79